sensor_id;sensor_type;location;lat;lon;timestamp;pressure;altitude;pressure_sealevel;temperature;humidity
55038;BME280;40937;53.594;10.034;2022-08-19T00:01:24;77048.91;;;-147.20;61.11
55038;BME280;40937;53.594;10.034;2022-08-19T00:03:59;77034.78;;;-147.20;61.26
55038;BME280;40937;53.594;10.034;2022-08-19T00:06:29;77024.69;;;-147.20;61.21
55038;BME280;40937;53.594;10.034;2022-08-19T00:08:59;77026.72;;;-147.20;61.53
55038;BME280;40937;53.594;10.034;2022-08-19T00:11:33;77020.66;;;-147.20;61.58
55038;BME280;40937;53.594;10.034;2022-08-19T00:14:03;77014.59;;;-147.20;61.38
55038;BME280;40937;53.594;10.034;2022-08-19T00:16:39;77020.66;;;-147.20;61.78
55038;BME280;40937;53.594;10.034;2022-08-19T00:19:20;77028.72;;;-147.20;62.22
55038;BME280;40937;53.594;10.034;2022-08-19T00:21:47;77028.72;;;-147.20;62.51
55038;BME280;40937;53.594;10.034;2022-08-19T00:24:14;77028.72;;;-147.20;62.32
55038;BME280;40937;53.594;10.034;2022-08-19T00:26:42;77026.72;;;-147.20;62.34
55038;BME280;40937;53.594;10.034;2022-08-19T00:29:10;77026.72;;;-147.20;62.45
55038;BME280;40937;53.594;10.034;2022-08-19T00:31:37;77026.72;;;-147.20;62.43
55038;BME280;40937;53.594;10.034;2022-08-19T00:34:04;77024.69;;;-147.20;62.54
55038;BME280;40937;53.594;10.034;2022-08-19T00:36:32;77024.69;;;-147.20;62.63
55038;BME280;40937;53.594;10.034;2022-08-19T00:38:59;77030.75;;;-147.20;62.67
55038;BME280;40937;53.594;10.034;2022-08-19T00:41:26;77030.75;;;-147.20;62.52
55038;BME280;40937;53.594;10.034;2022-08-19T00:43:58;77024.69;;;-147.20;62.57
55038;BME280;40937;53.594;10.034;2022-08-19T00:46:25;77028.72;;;-147.20;62.52
55038;BME280;40937;53.594;10.034;2022-08-19T00:48:52;77024.69;;;-147.20;62.79
55038;BME280;40937;53.594;10.034;2022-08-19T00:51:20;77030.75;;;-147.20;63.09
55038;BME280;40937;53.594;10.034;2022-08-19T00:53:48;77028.72;;;-147.20;63.01
55038;BME280;40937;53.594;10.034;2022-08-19T00:56:15;77026.72;;;-147.20;63.18
55038;BME280;40937;53.594;10.034;2022-08-19T00:58:42;77030.75;;;-147.20;63.03
55038;BME280;40937;53.594;10.034;2022-08-19T01:01:10;77028.72;;;-147.20;63.15
55038;BME280;40937;53.594;10.034;2022-08-19T01:03:36;77026.72;;;-147.20;63.06
55038;BME280;40937;53.594;10.034;2022-08-19T01:06:05;77022.69;;;-147.20;62.94
55038;BME280;40937;53.594;10.034;2022-08-19T01:08:32;77026.72;;;-147.20;63.19
55038;BME280;40937;53.594;10.034;2022-08-19T01:11:00;77032.78;;;-147.20;63.12
55038;BME280;40937;53.594;10.034;2022-08-19T01:13:30;77032.78;;;-147.20;63.15
55038;BME280;40937;53.594;10.034;2022-08-19T01:16:02;77030.75;;;-147.20;62.81
55038;BME280;40937;53.594;10.034;2022-08-19T01:18:30;77022.69;;;-147.20;62.66
55038;BME280;40937;53.594;10.034;2022-08-19T01:21:02;77024.69;;;-147.20;63.01
55038;BME280;40937;53.594;10.034;2022-08-19T01:23:31;77024.69;;;-147.20;63.09
55038;BME280;40937;53.594;10.034;2022-08-19T01:26:10;77020.66;;;-147.20;63.02
55038;BME280;40937;53.594;10.034;2022-08-19T01:28:37;77024.69;;;-147.20;62.99
55038;BME280;40937;53.594;10.034;2022-08-19T01:31:06;77024.69;;;-147.20;63.26
55038;BME280;40937;53.594;10.034;2022-08-19T01:33:33;77030.75;;;-147.20;63.24
55038;BME280;40937;53.594;10.034;2022-08-19T01:36:08;77026.72;;;-147.20;63.34
55038;BME280;40937;53.594;10.034;2022-08-19T01:38:38;77024.69;;;-147.20;63.37
55038;BME280;40937;53.594;10.034;2022-08-19T01:41:06;77028.72;;;-147.20;63.68
55038;BME280;40937;53.594;10.034;2022-08-19T01:43:33;77028.72;;;-147.20;63.75
55038;BME280;40937;53.594;10.034;2022-08-19T01:46:01;77020.66;;;-147.20;63.71
55038;BME280;40937;53.594;10.034;2022-08-19T01:48:33;77016.63;;;-147.20;63.63
55038;BME280;40937;53.594;10.034;2022-08-19T01:51:00;77016.63;;;-147.20;63.78
55038;BME280;40937;53.594;10.034;2022-08-19T01:53:26;77022.69;;;-147.20;64.06
55038;BME280;40937;53.594;10.034;2022-08-19T01:55:54;77020.66;;;-147.20;63.93
55038;BME280;40937;53.594;10.034;2022-08-19T01:58:26;77018.63;;;-147.20;63.95
55038;BME280;40937;53.594;10.034;2022-08-19T02:00:57;77024.69;;;-147.20;64.11
55038;BME280;40937;53.594;10.034;2022-08-19T02:03:24;77026.72;;;-147.20;64.14
55038;BME280;40937;53.594;10.034;2022-08-19T02:05:54;77022.69;;;-147.20;64.34
55038;BME280;40937;53.594;10.034;2022-08-19T02:08:21;77024.69;;;-147.20;64.57
55038;BME280;40937;53.594;10.034;2022-08-19T02:10:48;77024.69;;;-147.20;64.67
55038;BME280;40937;53.594;10.034;2022-08-19T02:13:17;77024.69;;;-147.20;64.88
55038;BME280;40937;53.594;10.034;2022-08-19T02:15:44;77020.66;;;-147.20;64.82
55038;BME280;40937;53.594;10.034;2022-08-19T02:18:10;77012.59;;;-147.20;64.73
55038;BME280;40937;53.594;10.034;2022-08-19T02:20:38;77008.53;;;-147.20;64.90
55038;BME280;40937;53.594;10.034;2022-08-19T02:23:06;77010.56;;;-147.20;64.92
55038;BME280;40937;53.594;10.034;2022-08-19T02:25:33;77008.53;;;-147.20;64.99
55038;BME280;40937;53.594;10.034;2022-08-19T02:28:00;77006.53;;;-147.20;65.12
55038;BME280;40937;53.594;10.034;2022-08-19T02:30:28;77004.50;;;-147.20;65.27
55038;BME280;40937;53.594;10.034;2022-08-19T02:32:54;77014.59;;;-147.20;65.40
55038;BME280;40937;53.594;10.034;2022-08-19T02:35:21;77020.66;;;-147.20;65.43
55038;BME280;40937;53.594;10.034;2022-08-19T02:37:48;77032.78;;;-147.20;65.72
55038;BME280;40937;53.594;10.034;2022-08-19T02:40:32;77028.72;;;-147.20;65.49
55038;BME280;40937;53.594;10.034;2022-08-19T02:43:00;77034.78;;;-147.20;66.25
55038;BME280;40937;53.594;10.034;2022-08-19T02:45:31;77038.81;;;-147.20;66.29
55038;BME280;40937;53.594;10.034;2022-08-19T02:47:58;77036.81;;;-147.20;66.41
55038;BME280;40937;53.594;10.034;2022-08-19T02:50:25;77030.75;;;-147.20;66.36
55038;BME280;40937;53.594;10.034;2022-08-19T02:52:51;77028.72;;;-147.20;66.19
55038;BME280;40937;53.594;10.034;2022-08-19T02:55:18;77024.69;;;-147.20;66.25
55038;BME280;40937;53.594;10.034;2022-08-19T02:57:46;77024.69;;;-147.20;66.13
55038;BME280;40937;53.594;10.034;2022-08-19T03:00:14;77026.72;;;-147.20;66.02
55038;BME280;40937;53.594;10.034;2022-08-19T03:02:42;77022.69;;;-147.20;66.11
55038;BME280;40937;53.594;10.034;2022-08-19T03:05:10;77038.81;;;-147.20;66.50
55038;BME280;40937;53.594;10.034;2022-08-19T03:07:37;77044.88;;;-147.20;66.67
55038;BME280;40937;53.594;10.034;2022-08-19T03:10:04;77044.88;;;-147.20;66.74
55038;BME280;40937;53.594;10.034;2022-08-19T03:12:35;77052.97;;;-147.20;66.99
55038;BME280;40937;53.594;10.034;2022-08-19T03:15:03;77065.06;;;-147.20;67.53
55038;BME280;40937;53.594;10.034;2022-08-19T03:17:30;77063.06;;;-147.20;67.76
55038;BME280;40937;53.594;10.034;2022-08-19T03:19:58;77069.09;;;-147.20;68.17
55038;BME280;40937;53.594;10.034;2022-08-19T03:22:24;77073.16;;;-147.20;68.26
55038;BME280;40937;53.594;10.034;2022-08-19T03:24:51;77069.09;;;-147.20;67.94
55038;BME280;40937;53.594;10.034;2022-08-19T03:27:19;77069.09;;;-147.20;67.83
55038;BME280;40937;53.594;10.034;2022-08-19T03:29:45;77065.06;;;-147.20;67.97
55038;BME280;40937;53.594;10.034;2022-08-19T03:32:13;77073.16;;;-147.20;68.23
55038;BME280;40937;53.594;10.034;2022-08-19T03:34:40;77069.09;;;-147.20;68.06
55038;BME280;40937;53.594;10.034;2022-08-19T03:37:09;77073.16;;;-147.20;68.10
55038;BME280;40937;53.594;10.034;2022-08-19T03:39:38;77075.16;;;-147.20;68.15
55038;BME280;40937;53.594;10.034;2022-08-19T03:42:05;77079.19;;;-147.20;68.20
55038;BME280;40937;53.594;10.034;2022-08-19T03:44:32;77081.22;;;-147.20;68.29
55038;BME280;40937;53.594;10.034;2022-08-19T03:47:01;77075.16;;;-147.20;68.18
55038;BME280;40937;53.594;10.034;2022-08-19T03:49:31;77093.31;;;-147.20;68.69
55038;BME280;40937;53.594;10.034;2022-08-19T03:51:58;77085.25;;;-147.20;68.44
55038;BME280;40937;53.594;10.034;2022-08-19T03:54:27;77093.31;;;-147.20;68.22
55038;BME280;40937;53.594;10.034;2022-08-19T03:56:55;77085.25;;;-147.20;68.16
55038;BME280;40937;53.594;10.034;2022-08-19T03:59:25;77095.34;;;-147.20;68.42
55038;BME280;40937;53.594;10.034;2022-08-19T04:01:53;77097.38;;;-147.20;68.24
55038;BME280;40937;53.594;10.034;2022-08-19T04:04:20;77101.41;;;-147.20;68.29
55038;BME280;40937;53.594;10.034;2022-08-19T04:06:47;77107.47;;;-147.20;68.25
55038;BME280;40937;53.594;10.034;2022-08-19T04:09:15;77107.47;;;-147.20;68.27
55038;BME280;40937;53.594;10.034;2022-08-19T04:11:45;77095.34;;;-147.20;68.02
55038;BME280;40937;53.594;10.034;2022-08-19T04:14:15;77091.31;;;-147.20;67.85
55038;BME280;40937;53.594;10.034;2022-08-19T04:16:43;77107.47;;;-147.20;68.12
55038;BME280;40937;53.594;10.034;2022-08-19T04:19:11;77121.59;;;-147.20;68.37
55038;BME280;40937;53.594;10.034;2022-08-19T04:21:39;77135.72;;;-147.20;68.67
55038;BME280;40937;53.594;10.034;2022-08-19T04:24:06;77131.69;;;-147.20;68.38
55038;BME280;40937;53.594;10.034;2022-08-19T04:26:35;77139.75;;;-147.20;68.86
55038;BME280;40937;53.594;10.034;2022-08-19T04:29:07;77127.66;;;-147.20;68.15
55038;BME280;40937;53.594;10.034;2022-08-19T04:31:34;77127.66;;;-147.20;68.42
55038;BME280;40937;53.594;10.034;2022-08-19T04:34:04;77131.69;;;-147.20;68.41
55038;BME280;40937;53.594;10.034;2022-08-19T04:36:35;77129.66;;;-147.20;68.44
55038;BME280;40937;53.594;10.034;2022-08-19T04:39:05;77137.75;;;-147.20;68.64
55038;BME280;40937;53.594;10.034;2022-08-19T04:41:32;77133.69;;;-147.20;68.51
55038;BME280;40937;53.594;10.034;2022-08-19T04:44:18;77131.69;;;-147.20;68.46
55038;BME280;40937;53.594;10.034;2022-08-19T04:46:45;77141.78;;;-147.20;68.65
55038;BME280;40937;53.594;10.034;2022-08-19T04:49:14;77135.72;;;-147.20;68.63
55038;BME280;40937;53.594;10.034;2022-08-19T04:51:43;77139.75;;;-147.20;68.68
55038;BME280;40937;53.594;10.034;2022-08-19T04:54:10;77147.84;;;-147.20;68.86
55038;BME280;40937;53.594;10.034;2022-08-19T04:56:39;77149.84;;;-147.20;68.86
55038;BME280;40937;53.594;10.034;2022-08-19T04:59:06;77145.81;;;-147.20;68.81
55038;BME280;40937;53.594;10.034;2022-08-19T05:01:35;77161.97;;;-147.20;69.35
55038;BME280;40937;53.594;10.034;2022-08-19T05:04:04;77166.00;;;-147.20;69.63
55038;BME280;40937;53.594;10.034;2022-08-19T05:06:32;77155.91;;;-147.20;69.35
55038;BME280;40937;53.594;10.034;2022-08-19T05:09:00;77161.97;;;-147.20;69.50
55038;BME280;40937;53.594;10.034;2022-08-19T05:11:29;77159.94;;;-147.20;69.42
55038;BME280;40937;53.594;10.034;2022-08-19T05:13:56;77151.88;;;-147.20;69.12
55038;BME280;40937;53.594;10.034;2022-08-19T05:16:24;77143.78;;;-147.20;68.86
55038;BME280;40937;53.594;10.034;2022-08-19T05:18:53;77147.84;;;-147.20;68.78
55038;BME280;40937;53.594;10.034;2022-08-19T05:21:40;77166.00;;;-147.20;69.38
55038;BME280;40937;53.594;10.034;2022-08-19T05:24:24;77157.94;;;-147.20;69.28
55038;BME280;40937;53.594;10.034;2022-08-19T05:26:52;77159.94;;;-147.20;68.97
55038;BME280;40937;53.594;10.034;2022-08-19T05:29:24;77166.00;;;-147.20;68.80
55038;BME280;40937;53.594;10.034;2022-08-19T05:31:52;77166.00;;;-147.20;68.91
55038;BME280;40937;53.594;10.034;2022-08-19T05:34:22;77166.00;;;-147.20;69.01
55038;BME280;40937;53.594;10.034;2022-08-19T05:36:50;77163.97;;;-147.20;69.02
55038;BME280;40937;53.594;10.034;2022-08-19T05:39:24;77178.13;;;-147.20;69.46
55038;BME280;40937;53.594;10.034;2022-08-19T05:41:54;77186.19;;;-147.20;69.84
55038;BME280;40937;53.594;10.034;2022-08-19T05:44:22;77180.13;;;-147.20;69.86
55038;BME280;40937;53.594;10.034;2022-08-19T05:46:50;77172.06;;;-147.20;69.46
55038;BME280;40937;53.594;10.034;2022-08-19T05:49:21;77161.97;;;-147.20;69.45
55038;BME280;40937;53.594;10.034;2022-08-19T05:51:51;77172.06;;;-147.20;69.40
55038;BME280;40937;53.594;10.034;2022-08-19T05:54:18;77180.13;;;-147.20;69.83
55038;BME280;40937;53.594;10.034;2022-08-19T05:56:45;77168.03;;;-147.20;69.55
55038;BME280;40937;53.594;10.034;2022-08-19T05:59:13;77163.97;;;-147.20;69.40
55038;BME280;40937;53.594;10.034;2022-08-19T06:01:43;77168.03;;;-147.20;69.50
55038;BME280;40937;53.594;10.034;2022-08-19T06:04:10;77170.03;;;-147.20;69.18
55038;BME280;40937;53.594;10.034;2022-08-19T06:06:39;77176.09;;;-147.20;69.69
55038;BME280;40937;53.594;10.034;2022-08-19T06:09:07;77159.94;;;-147.20;69.35
55038;BME280;40937;53.594;10.034;2022-08-19T06:11:37;77170.03;;;-147.20;69.73
55038;BME280;40937;53.594;10.034;2022-08-19T06:14:06;77176.09;;;-147.20;69.75
55038;BME280;40937;53.594;10.034;2022-08-19T06:16:34;77170.03;;;-147.20;69.64
55038;BME280;40937;53.594;10.034;2022-08-19T06:19:06;77178.13;;;-147.20;69.89
55038;BME280;40937;53.594;10.034;2022-08-19T06:21:34;77182.16;;;-147.20;69.77
55038;BME280;40937;53.594;10.034;2022-08-19T06:24:04;77184.16;;;-147.20;70.01
55038;BME280;40937;53.594;10.034;2022-08-19T06:26:33;77192.25;;;-147.20;70.16
55038;BME280;40937;53.594;10.034;2022-08-19T06:29:00;77186.19;;;-147.20;70.26
55038;BME280;40937;53.594;10.034;2022-08-19T06:31:28;77176.09;;;-147.20;70.19
55038;BME280;40937;53.594;10.034;2022-08-19T06:33:56;77174.06;;;-147.20;69.94
55038;BME280;40937;53.594;10.034;2022-08-19T06:36:25;77176.09;;;-147.20;69.94
55038;BME280;40937;53.594;10.034;2022-08-19T06:38:57;77176.09;;;-147.20;70.07
55038;BME280;40937;53.594;10.034;2022-08-19T06:41:26;77170.03;;;-147.20;69.86
55038;BME280;40937;53.594;10.034;2022-08-19T06:43:52;77168.03;;;-147.20;69.79
55038;BME280;40937;53.594;10.034;2022-08-19T06:46:20;77168.03;;;-147.20;69.91
55038;BME280;40937;53.594;10.034;2022-08-19T06:48:47;77153.88;;;-147.20;69.65
55038;BME280;40937;53.594;10.034;2022-08-19T06:51:15;77151.88;;;-147.20;69.61
55038;BME280;40937;53.594;10.034;2022-08-19T06:53:44;77149.84;;;-147.20;69.31
55038;BME280;40937;53.594;10.034;2022-08-19T06:56:13;77151.88;;;-147.20;69.36
55038;BME280;40937;53.594;10.034;2022-08-19T06:58:41;77161.97;;;-147.20;69.35
55038;BME280;40937;53.594;10.034;2022-08-19T07:01:08;77151.88;;;-147.20;69.20
55038;BME280;40937;53.594;10.034;2022-08-19T07:03:36;77151.88;;;-147.20;69.29
55038;BME280;40937;53.594;10.034;2022-08-19T07:06:04;77161.97;;;-147.20;68.98
55038;BME280;40937;53.594;10.034;2022-08-19T07:08:32;77155.91;;;-147.20;69.00
55038;BME280;40937;53.594;10.034;2022-08-19T07:10:59;77159.94;;;-147.20;68.91
55038;BME280;40937;53.594;10.034;2022-08-19T07:13:26;77151.88;;;-147.20;69.01
55038;BME280;40937;53.594;10.034;2022-08-19T07:15:54;77147.84;;;-147.20;68.86
55038;BME280;40937;53.594;10.034;2022-08-19T07:18:21;77139.75;;;-147.20;68.59
55038;BME280;40937;53.594;10.034;2022-08-19T07:20:48;77153.88;;;-147.20;68.74
55038;BME280;40937;53.594;10.034;2022-08-19T07:23:15;77141.78;;;-147.20;68.31
55038;BME280;40937;53.594;10.034;2022-08-19T07:25:41;77135.72;;;-147.20;68.08
55038;BME280;40937;53.594;10.034;2022-08-19T07:28:08;77151.88;;;-147.20;68.50
55038;BME280;40937;53.594;10.034;2022-08-19T07:30:38;77143.78;;;-147.20;68.27
55038;BME280;40937;53.594;10.034;2022-08-19T07:33:07;77143.78;;;-147.20;68.05
55038;BME280;40937;53.594;10.034;2022-08-19T07:35:34;77139.75;;;-147.20;67.84
55038;BME280;40937;53.594;10.034;2022-08-19T07:38:00;77137.75;;;-147.20;67.84
55038;BME280;40937;53.594;10.034;2022-08-19T07:40:29;77149.84;;;-147.20;67.99
55038;BME280;40937;53.594;10.034;2022-08-19T07:42:56;77143.78;;;-147.20;67.90
55038;BME280;40937;53.594;10.034;2022-08-19T07:45:23;77137.75;;;-147.20;67.48
55038;BME280;40937;53.594;10.034;2022-08-19T07:47:50;77149.84;;;-147.20;67.76
55038;BME280;40937;53.594;10.034;2022-08-19T07:50:20;77147.84;;;-147.20;67.91
55038;BME280;40937;53.594;10.034;2022-08-19T07:52:47;77143.78;;;-147.20;67.83
55038;BME280;40937;53.594;10.034;2022-08-19T07:55:15;77143.78;;;-147.20;67.70
55038;BME280;40937;53.594;10.034;2022-08-19T07:57:43;77143.78;;;-147.20;67.80
55038;BME280;40937;53.594;10.034;2022-08-19T08:00:10;77139.75;;;-147.20;67.70
55038;BME280;40937;53.594;10.034;2022-08-19T08:02:40;77133.69;;;-147.20;67.51
55038;BME280;40937;53.594;10.034;2022-08-19T08:05:08;77129.66;;;-147.20;67.13
55038;BME280;40937;53.594;10.034;2022-08-19T08:07:56;77135.72;;;-147.20;66.96
55038;BME280;40937;53.594;10.034;2022-08-19T08:10:40;77137.75;;;-147.20;66.89
55038;BME280;40937;53.594;10.034;2022-08-19T08:13:07;77147.84;;;-147.20;67.16
55038;BME280;40937;53.594;10.034;2022-08-19T08:15:35;77151.88;;;-147.20;67.19
55038;BME280;40937;53.594;10.034;2022-08-19T08:18:03;77145.81;;;-147.20;67.06
55038;BME280;40937;53.594;10.034;2022-08-19T08:20:30;77151.88;;;-147.20;67.36
55038;BME280;40937;53.594;10.034;2022-08-19T08:22:58;77168.03;;;-147.20;67.56
55038;BME280;40937;53.594;10.034;2022-08-19T08:25:43;77163.97;;;-147.20;67.82
55038;BME280;40937;53.594;10.034;2022-08-19T08:28:09;77159.94;;;-147.20;67.57
55038;BME280;40937;53.594;10.034;2022-08-19T08:30:36;77139.75;;;-147.20;66.81
55038;BME280;40937;53.594;10.034;2022-08-19T08:33:06;77141.78;;;-147.20;66.84
55038;BME280;40937;53.594;10.034;2022-08-19T08:35:33;77151.88;;;-147.20;66.89
55038;BME280;40937;53.594;10.034;2022-08-19T08:38:02;77159.94;;;-147.20;67.28
55038;BME280;40937;53.594;10.034;2022-08-19T08:40:34;77166.00;;;-147.20;67.41
55038;BME280;40937;53.594;10.034;2022-08-19T08:43:20;77163.97;;;-147.20;67.55
55038;BME280;40937;53.594;10.034;2022-08-19T08:45:53;77155.91;;;-147.20;67.43
55038;BME280;40937;53.594;10.034;2022-08-19T08:48:30;77149.84;;;-147.20;67.30
55038;BME280;40937;53.594;10.034;2022-08-19T08:51:05;77163.97;;;-147.20;67.48
55038;BME280;40937;53.594;10.034;2022-08-19T08:53:38;77151.88;;;-147.20;67.46
55038;BME280;40937;53.594;10.034;2022-08-19T08:56:08;77149.84;;;-147.20;67.06
55038;BME280;40937;53.594;10.034;2022-08-19T08:58:45;77151.88;;;-147.20;67.33
55038;BME280;40937;53.594;10.034;2022-08-19T09:01:14;77151.88;;;-147.20;67.18
55038;BME280;40937;53.594;10.034;2022-08-19T09:03:42;77139.75;;;-147.20;66.99
55038;BME280;40937;53.594;10.034;2022-08-19T09:06:14;77149.84;;;-147.20;66.67
55038;BME280;40937;53.594;10.034;2022-08-19T09:08:59;77147.84;;;-147.20;66.71
55038;BME280;40937;53.594;10.034;2022-08-19T09:11:36;77147.84;;;-147.20;66.83
55038;BME280;40937;53.594;10.034;2022-08-19T09:14:10;77141.78;;;-147.20;66.47
55038;BME280;40937;53.594;10.034;2022-08-19T09:16:40;77145.81;;;-147.20;66.51
55038;BME280;40937;53.594;10.034;2022-08-19T09:19:08;77141.78;;;-147.20;66.38
55038;BME280;40937;53.594;10.034;2022-08-19T09:21:37;77141.78;;;-147.20;66.57
55038;BME280;40937;53.594;10.034;2022-08-19T09:24:06;77137.75;;;-147.20;66.25
55038;BME280;40937;53.594;10.034;2022-08-19T09:26:33;77143.78;;;-147.20;66.56
55038;BME280;40937;53.594;10.034;2022-08-19T09:29:00;77143.78;;;-147.20;66.56
55038;BME280;40937;53.594;10.034;2022-08-19T09:31:30;77143.78;;;-147.20;66.34
55038;BME280;40937;53.594;10.034;2022-08-19T09:33:58;77139.75;;;-147.20;66.40
55038;BME280;40937;53.594;10.034;2022-08-19T09:36:31;77133.69;;;-147.20;66.42
55038;BME280;40937;53.594;10.034;2022-08-19T09:38:59;77131.69;;;-147.20;66.63
55038;BME280;40937;53.594;10.034;2022-08-19T09:41:29;77135.72;;;-147.20;66.78
55038;BME280;40937;53.594;10.034;2022-08-19T09:43:57;77119.56;;;-147.20;66.20
55038;BME280;40937;53.594;10.034;2022-08-19T09:46:27;77115.53;;;-147.20;65.92
55038;BME280;40937;53.594;10.034;2022-08-19T09:48:57;77099.38;;;-147.20;65.84
55038;BME280;40937;53.594;10.034;2022-08-19T09:51:25;77097.38;;;-147.20;65.71
55038;BME280;40937;53.594;10.034;2022-08-19T09:53:54;77109.47;;;-147.20;65.66
55038;BME280;40937;53.594;10.034;2022-08-19T09:56:22;77103.41;;;-147.20;65.21
55038;BME280;40937;53.594;10.034;2022-08-19T09:58:50;77113.50;;;-147.20;65.54
55038;BME280;40937;53.594;10.034;2022-08-19T10:01:19;77107.47;;;-147.20;65.50
55038;BME280;40937;53.594;10.034;2022-08-19T10:03:48;77105.44;;;-147.20;65.57
55038;BME280;40937;53.594;10.034;2022-08-19T10:06:16;77103.41;;;-147.20;65.31
55038;BME280;40937;53.594;10.034;2022-08-19T10:08:44;77107.47;;;-147.20;65.63
55038;BME280;40937;53.594;10.034;2022-08-19T10:11:11;77111.50;;;-147.20;65.71
55038;BME280;40937;53.594;10.034;2022-08-19T10:13:39;77113.50;;;-147.20;66.11
55038;BME280;40937;53.594;10.034;2022-08-19T10:16:10;77105.44;;;-147.20;65.97
55038;BME280;40937;53.594;10.034;2022-08-19T10:18:37;77113.50;;;-147.20;66.00
55038;BME280;40937;53.594;10.034;2022-08-19T10:21:07;77109.47;;;-147.20;65.95
55038;BME280;40937;53.594;10.034;2022-08-19T10:23:35;77117.56;;;-147.20;66.00
55038;BME280;40937;53.594;10.034;2022-08-19T10:26:03;77109.47;;;-147.20;66.13
55038;BME280;40937;53.594;10.034;2022-08-19T10:28:33;77117.56;;;-147.20;66.33
55038;BME280;40937;53.594;10.034;2022-08-19T10:31:08;77105.44;;;-147.20;65.96
55038;BME280;40937;53.594;10.034;2022-08-19T10:33:37;77097.38;;;-147.20;65.92
55038;BME280;40937;53.594;10.034;2022-08-19T10:36:06;77091.31;;;-147.20;65.95
55038;BME280;40937;53.594;10.034;2022-08-19T10:38:35;77091.31;;;-147.20;65.50
55038;BME280;40937;53.594;10.034;2022-08-19T10:41:07;77079.19;;;-147.20;65.43
55038;BME280;40937;53.594;10.034;2022-08-19T10:43:34;77079.19;;;-147.20;65.36
55038;BME280;40937;53.594;10.034;2022-08-19T10:46:04;77075.16;;;-147.20;65.11
55038;BME280;40937;53.594;10.034;2022-08-19T10:48:33;77071.13;;;-147.20;65.36
55038;BME280;40937;53.594;10.034;2022-08-19T10:51:00;77069.09;;;-147.20;65.42
55038;BME280;40937;53.594;10.034;2022-08-19T10:53:45;77075.16;;;-147.20;65.36
55038;BME280;40937;53.594;10.034;2022-08-19T10:56:11;77063.06;;;-147.20;65.22
55038;BME280;40937;53.594;10.034;2022-08-19T10:58:56;77069.09;;;-147.20;65.19
55038;BME280;40937;53.594;10.034;2022-08-19T11:01:23;77071.13;;;-147.20;65.49
55038;BME280;40937;53.594;10.034;2022-08-19T11:03:51;77065.06;;;-147.20;65.38
55038;BME280;40937;53.594;10.034;2022-08-19T11:06:18;77059.00;;;-147.20;65.26
55038;BME280;40937;53.594;10.034;2022-08-19T11:08:45;77061.03;;;-147.20;65.38
55038;BME280;40937;53.594;10.034;2022-08-19T11:11:12;77057.00;;;-147.20;65.29
55038;BME280;40937;53.594;10.034;2022-08-19T11:13:40;77063.06;;;-147.20;65.35
55038;BME280;40937;53.594;10.034;2022-08-19T11:16:11;77071.13;;;-147.20;65.38
55038;BME280;40937;53.594;10.034;2022-08-19T11:18:44;77065.06;;;-147.20;65.11
55038;BME280;40937;53.594;10.034;2022-08-19T11:21:14;77081.22;;;-147.20;65.23
55038;BME280;40937;53.594;10.034;2022-08-19T11:23:45;77077.19;;;-147.20;65.12
55038;BME280;40937;53.594;10.034;2022-08-19T11:26:12;77075.16;;;-147.20;65.04
55038;BME280;40937;53.594;10.034;2022-08-19T11:28:40;77071.13;;;-147.20;64.96
55038;BME280;40937;53.594;10.034;2022-08-19T11:31:12;77059.00;;;-147.20;64.50
55038;BME280;40937;53.594;10.034;2022-08-19T11:33:40;77059.00;;;-147.20;64.45
55038;BME280;40937;53.594;10.034;2022-08-19T11:36:07;77044.88;;;-147.20;64.18
55038;BME280;40937;53.594;10.034;2022-08-19T11:38:36;77032.78;;;-147.20;64.17
55038;BME280;40937;53.594;10.034;2022-08-19T11:41:06;77028.72;;;-147.20;63.71
55038;BME280;40937;53.594;10.034;2022-08-19T11:43:34;77020.66;;;-147.20;63.66
55038;BME280;40937;53.594;10.034;2022-08-19T11:46:04;77014.59;;;-147.20;63.56
55038;BME280;40937;53.594;10.034;2022-08-19T11:48:32;77006.53;;;-147.20;63.30
55038;BME280;40937;53.594;10.034;2022-08-19T11:50:59;76998.47;;;-147.20;63.46
55038;BME280;40937;53.594;10.034;2022-08-19T11:53:25;76986.34;;;-147.20;63.15
55038;BME280;40937;53.594;10.034;2022-08-19T11:55:54;76980.28;;;-147.20;62.83
55038;BME280;40937;53.594;10.034;2022-08-19T11:58:22;76984.31;;;-147.20;62.79
55038;BME280;40937;53.594;10.034;2022-08-19T12:00:50;76990.38;;;-147.20;63.06
55038;BME280;40937;53.594;10.034;2022-08-19T12:03:17;76986.34;;;-147.20;62.88
55038;BME280;40937;53.594;10.034;2022-08-19T12:05:45;76984.31;;;-147.20;63.01
55038;BME280;40937;53.594;10.034;2022-08-19T12:08:15;76984.31;;;-147.20;63.06
55038;BME280;40937;53.594;10.034;2022-08-19T12:10:43;76978.28;;;-147.20;62.77
55038;BME280;40937;53.594;10.034;2022-08-19T12:13:15;76976.25;;;-147.20;62.90
55038;BME280;40937;53.594;10.034;2022-08-19T12:15:46;76974.22;;;-147.20;62.61
55038;BME280;40937;53.594;10.034;2022-08-19T12:18:16;76968.19;;;-147.20;62.45
55038;BME280;40937;53.594;10.034;2022-08-19T12:20:43;76970.19;;;-147.20;62.52
55038;BME280;40937;53.594;10.034;2022-08-19T12:23:14;76962.13;;;-147.20;62.30
55038;BME280;40937;53.594;10.034;2022-08-19T12:25:45;76966.16;;;-147.20;62.34
55038;BME280;40937;53.594;10.034;2022-08-19T12:28:17;76958.09;;;-147.20;62.07
55038;BME280;40937;53.594;10.034;2022-08-19T12:30:43;76941.94;;;-147.20;61.68
55038;BME280;40937;53.594;10.034;2022-08-19T12:33:10;76929.81;;;-147.20;61.41
55038;BME280;40937;53.594;10.034;2022-08-19T12:35:39;76917.72;;;-147.20;60.91
55038;BME280;40937;53.594;10.034;2022-08-19T12:38:06;76917.72;;;-147.20;60.84
55038;BME280;40937;53.594;10.034;2022-08-19T12:40:33;76901.56;;;-147.20;60.81